Time;durP1;ratioP1;P1;durP2;ratioP2;P2;SDS_P1;SDS_P2;PMS_P1;PMS_P2;Temp;Humidity;BMP_temperature;BMP_pressure;BME280_temperature;BME280_humidity;BME280_pressure;Samples;Min_cycle;Max_cycle;Signal;HPM_P1;HPM_P2
2021/12/02 00:01:27;;;;;;;11.25;1.80;;;;;;;;;;5006095;28;20072;-82
2021/12/02 00:03:55;;;;;;;10.93;2.20;;;;;;;;;;5006509;28;20033;-82
2021/12/02 00:06:21;;;;;;;11.57;1.35;;;;;;;;;;5006847;28;20141;-82
2021/12/02 00:08:48;;;;;;;12.48;1.95;;;;;;;;;;5006251;28;20096;-82
2021/12/02 00:11:15;;;;;;;8.50;1.80;;;;;;;;;;5006919;28;20486;-82
2021/12/02 00:14:08;;;;;;;12.57;2.05;;;;;;;;;;5005851;28;20042;-83
2021/12/02 00:21:45;;;;;;;7.28;1.40;;;;;;;;;;5006090;28;20490;-82
2021/12/02 00:24:14;;;;;;;12.95;1.73;;;;;;;;;;5006700;28;20046;-82
2021/12/02 00:26:40;;;;;;;10.65;1.80;;;;;;;;;;5004311;28;20092;-83
2021/12/02 00:29:08;;;;;;;15.60;1.75;;;;;;;;;;5005236;28;20132;-83
2021/12/02 00:31:35;;;;;;;8.88;1.63;;;;;;;;;;5004160;28;20042;-82
2021/12/02 00:34:03;;;;;;;10.75;1.60;;;;;;;;;;5006631;28;20058;-82
2021/12/02 00:36:33;;;;;;;11.02;1.50;;;;;;;;;;5005040;28;20386;-81
2021/12/02 00:39:02;;;;;;;10.75;1.42;;;;;;;;;;5003703;28;20132;-82
2021/12/02 00:41:35;;;;;;;8.70;1.30;;;;;;;;;;5006958;28;20048;-82
2021/12/02 00:44:01;;;;;;;11.32;1.48;;;;;;;;;;5004660;28;20046;-82
2021/12/02 00:46:33;;;;;;;9.07;1.20;;;;;;;;;;5006084;28;20137;-83
2021/12/02 00:49:02;;;;;;;6.32;1.08;;;;;;;;;;5004073;28;20042;-82
2021/12/02 00:51:29;;;;;;;8.32;0.93;;;;;;;;;;5004889;28;20122;-82
2021/12/02 00:53:55;;;;;;;5.07;1.20;;;;;;;;;;5005462;28;20054;-82
2021/12/02 00:56:24;;;;;;;5.68;1.33;;;;;;;;;;4987084;28;20048;-83
2021/12/02 00:58:50;;;;;;;4.95;1.20;;;;;;;;;;5004855;28;20053;-82
2021/12/02 01:01:18;;;;;;;10.48;1.13;;;;;;;;;;5002528;28;20150;-82
2021/12/02 01:03:44;;;;;;;10.73;1.90;;;;;;;;;;5006336;28;20034;-83
2021/12/02 01:06:10;;;;;;;11.45;1.50;;;;;;;;;;4999520;28;20502;-82
2021/12/02 01:08:37;;;;;;;7.95;1.00;;;;;;;;;;4996222;28;20384;-82
2021/12/02 01:11:10;;;;;;;5.10;1.13;;;;;;;;;;5004775;28;20069;-82
2021/12/02 01:13:36;;;;;;;9.07;0.93;;;;;;;;;;5004899;28;20037;-82
2021/12/02 01:16:02;;;;;;;9.63;1.27;;;;;;;;;;5005979;28;20042;-82
2021/12/02 01:18:29;;;;;;;6.45;1.27;;;;;;;;;;5005650;28;20146;-82
2021/12/02 01:20:55;;;;;;;7.25;1.17;;;;;;;;;;5005989;28;20108;-82
2021/12/02 01:23:23;;;;;;;18.02;1.27;;;;;;;;;;5005275;28;20100;-82
2021/12/02 01:25:54;;;;;;;7.32;1.10;;;;;;;;;;5005325;28;20141;-82
2021/12/02 01:28:23;;;;;;;14.70;1.67;;;;;;;;;;4987803;28;20123;-82
2021/12/02 01:30:50;;;;;;;12.82;1.33;;;;;;;;;;5004084;28;20038;-82
2021/12/02 01:33:18;;;;;;;8.85;1.27;;;;;;;;;;5003318;28;20452;-82
2021/12/02 01:35:48;;;;;;;7.43;1.08;;;;;;;;;;5003654;28;20076;-83
2021/12/02 01:38:15;;;;;;;13.68;1.52;;;;;;;;;;5004703;28;22162;-82
2021/12/02 01:40:42;;;;;;;11.77;1.25;;;;;;;;;;5004974;28;20058;-82
2021/12/02 01:43:10;;;;;;;6.72;1.02;;;;;;;;;;5003597;28;20133;-83
2021/12/02 01:45:40;;;;;;;7.15;1.05;;;;;;;;;;5003684;28;20526;-82
2021/12/02 01:48:09;;;;;;;8.90;1.35;;;;;;;;;;4987158;28;20042;-82
2021/12/02 01:50:35;;;;;;;9.80;1.55;;;;;;;;;;5006935;28;20053;-82
2021/12/02 01:53:05;;;;;;;6.05;1.38;;;;;;;;;;5007711;28;20133;-85
2021/12/02 01:55:31;;;;;;;13.20;2.22;;;;;;;;;;5008794;28;20034;-84
2021/12/02 01:58:00;;;;;;;11.52;1.65;;;;;;;;;;5008135;28;20520;-86
2021/12/02 02:00:41;;;;;;;8.40;1.30;;;;;;;;;;5006868;28;20045;-85
2021/12/02 02:03:08;;;;;;;14.05;1.17;;;;;;;;;;5006395;28;20052;-86
2021/12/02 02:05:34;;;;;;;7.05;1.35;;;;;;;;;;5004660;28;20471;-84
2021/12/02 02:08:00;;;;;;;8.70;1.27;;;;;;;;;;4991625;28;20038;-85
2021/12/02 02:10:27;;;;;;;14.75;1.35;;;;;;;;;;5009741;28;20049;-85
2021/12/02 02:12:57;;;;;;;6.00;1.15;;;;;;;;;;5015177;28;20038;-86
2021/12/02 02:15:23;;;;;;;10.80;1.33;;;;;;;;;;5012778;28;20058;-85
2021/12/02 02:18:06;;;;;;;8.88;1.10;;;;;;;;;;5002254;28;20038;-84
2021/12/02 02:21:02;;;;;;;11.15;1.35;;;;;;;;;;5013579;28;20048;-85
2021/12/02 02:23:32;;;;;;;11.55;1.48;;;;;;;;;;5007041;28;20493;-85
2021/12/02 02:25:58;;;;;;;11.05;2.22;;;;;;;;;;5012080;28;20490;-85
2021/12/02 02:28:24;;;;;;;5.20;1.08;;;;;;;;;;5008364;28;20052;-85
2021/12/02 02:30:51;;;;;;;11.88;1.65;;;;;;;;;;5006866;28;20449;-85
2021/12/02 02:33:19;;;;;;;9.13;1.70;;;;;;;;;;5007082;28;20058;-84
2021/12/02 02:35:47;;;;;;;8.57;1.38;;;;;;;;;;5007485;28;20128;-84
2021/12/02 02:38:14;;;;;;;6.45;1.17;;;;;;;;;;5007257;28;20037;-84
2021/12/02 02:40:42;;;;;;;10.02;1.40;;;;;;;;;;5006864;28;20057;-85
2021/12/02 02:43:09;;;;;;;14.40;1.58;;;;;;;;;;5008149;28;20455;-84
2021/12/02 02:45:36;;;;;;;7.15;0.90;;;;;;;;;;5006688;28;20157;-85
2021/12/02 02:48:02;;;;;;;8.02;1.00;;;;;;;;;;5007340;28;20527;-84
2021/12/02 02:50:30;;;;;;;7.00;1.20;;;;;;;;;;5006704;28;20033;-85
2021/12/02 02:53:10;;;;;;;7.05;0.98;;;;;;;;;;5006277;28;20030;-84
2021/12/02 02:55:37;;;;;;;10.60;0.98;;;;;;;;;;5007495;28;20093;-84
2021/12/02 03:01:01;;;;;;;7.45;1.35;;;;;;;;;;4966753;28;20069;-85
2021/12/02 03:06:27;;;;;;;11.00;1.40;;;;;;;;;;5003886;28;20434;-85
2021/12/02 03:08:58;;;;;;;6.78;0.85;;;;;;;;;;5006745;28;20501;-84
2021/12/02 03:11:27;;;;;;;5.85;0.85;;;;;;;;;;5007245;28;20061;-84
2021/12/02 03:13:54;;;;;;;4.30;0.60;;;;;;;;;;5005645;28;20056;-84
2021/12/02 03:19:05;;;;;;;4.00;1.10;;;;;;;;;;5007093;28;20049;-85
2021/12/02 03:21:31;;;;;;;4.15;1.08;;;;;;;;;;5007157;28;20052;-84
2021/12/02 03:23:58;;;;;;;4.22;1.17;;;;;;;;;;5005739;28;20449;-85
2021/12/02 03:26:24;;;;;;;6.47;0.93;;;;;;;;;;5006496;28;20371;-85
2021/12/02 03:28:52;;;;;;;8.82;1.10;;;;;;;;;;5006786;28;20052;-84
2021/12/02 03:31:18;;;;;;;5.68;0.95;;;;;;;;;;5006718;28;20038;-84
2021/12/02 03:33:44;;;;;;;6.30;0.80;;;;;;;;;;5006802;28;20519;-85
2021/12/02 03:36:11;;;;;;;4.63;0.68;;;;;;;;;;5006079;28;20042;-86
2021/12/02 03:38:37;;;;;;;3.28;0.80;;;;;;;;;;5005026;28;20049;-85
2021/12/02 03:41:04;;;;;;;15.30;0.90;;;;;;;;;;5005808;28;20143;-87
2021/12/02 03:43:36;;;;;;;4.97;1.02;;;;;;;;;;4991051;28;20057;-86
2021/12/02 03:46:03;;;;;;;6.45;1.27;;;;;;;;;;5005362;28;20508;-86
2021/12/02 03:48:29;;;;;;;11.95;1.20;;;;;;;;;;5008333;28;20062;-84
2021/12/02 03:50:55;;;;;;;4.45;0.85;;;;;;;;;;5005307;28;20038;-84
2021/12/02 03:53:21;;;;;;;4.18;0.77;;;;;;;;;;4988742;28;20589;-84
2021/12/02 03:55:47;;;;;;;4.47;1.08;;;;;;;;;;5005680;28;20049;-84
2021/12/02 03:58:14;;;;;;;9.00;0.90;;;;;;;;;;5006764;28;20124;-84
2021/12/02 04:00:40;;;;;;;7.55;0.88;;;;;;;;;;5004600;28;20046;-84
2021/12/02 04:03:06;;;;;;;7.00;1.08;;;;;;;;;;5004914;28;20030;-82
2021/12/02 04:05:32;;;;;;;3.33;1.08;;;;;;;;;;5006807;28;20042;-84
2021/12/02 04:07:58;;;;;;;4.20;0.95;;;;;;;;;;5005180;28;20050;-84
2021/12/02 04:10:25;;;;;;;6.40;0.90;;;;;;;;;;5006679;28;20049;-84
2021/12/02 04:15:32;;;;;;;3.33;0.50;;;;;;;;;;4989339;28;20379;-85
2021/12/02 04:17:58;;;;;;;3.03;0.60;;;;;;;;;;5006643;28;20072;-84
2021/12/02 04:20:25;;;;;;;1.48;0.45;;;;;;;;;;5006298;28;20434;-84
2021/12/02 04:22:52;;;;;;;2.53;0.40;;;;;;;;;;5006403;28;20046;-85
2021/12/02 04:25:19;;;;;;;2.67;0.50;;;;;;;;;;5005364;28;20445;-85
2021/12/02 04:27:45;;;;;;;1.60;0.38;;;;;;;;;;5004593;28;20482;-84
2021/12/02 04:30:13;;;;;;;4.88;0.57;;;;;;;;;;5005887;28;20060;-84
2021/12/02 04:32:39;;;;;;;2.60;0.63;;;;;;;;;;5006210;28;20042;-84
2021/12/02 04:35:17;;;;;;;3.58;0.50;;;;;;;;;;5073205;27;20809;-83
2021/12/02 04:37:44;;;;;;;2.40;0.30;;;;;;;;;;5061078;28;20045;-83
2021/12/02 04:40:12;;;;;;;2.45;0.38;;;;;;;;;;5061479;28;20049;-84
2021/12/02 04:42:38;;;;;;;1.10;0.50;;;;;;;;;;5063673;28;20043;-83
2021/12/02 04:45:05;;;;;;;1.02;0.57;;;;;;;;;;5061549;28;20037;-83
2021/12/02 04:47:31;;;;;;;1.08;0.40;;;;;;;;;;5061716;28;20554;-82
2021/12/02 04:49:57;;;;;;;2.10;0.80;;;;;;;;;;5061417;28;20056;-83
2021/12/02 04:52:24;;;;;;;3.75;1.55;;;;;;;;;;5063336;28;20056;-82
2021/12/02 04:54:50;;;;;;;6.28;1.15;;;;;;;;;;5062362;28;20072;-82
2021/12/02 04:57:16;;;;;;;1.80;0.90;;;;;;;;;;5060127;28;20079;-82
2021/12/02 04:59:42;;;;;;;1.60;0.93;;;;;;;;;;5063754;28;20226;-82
2021/12/02 05:02:08;;;;;;;1.65;0.77;;;;;;;;;;5060720;28;20044;-82
2021/12/02 05:04:34;;;;;;;2.25;0.90;;;;;;;;;;5062623;28;20029;-82
2021/12/02 05:07:00;;;;;;;2.42;0.88;;;;;;;;;;5059839;28;20072;-82
2021/12/02 05:09:26;;;;;;;0.75;0.70;;;;;;;;;;5061365;28;20497;-82
2021/12/02 05:11:52;;;;;;;2.67;0.50;;;;;;;;;;5056656;28;20041;-82
2021/12/02 05:14:18;;;;;;;0.38;0.30;;;;;;;;;;5062728;28;20120;-82
2021/12/02 05:16:44;;;;;;;0.98;0.38;;;;;;;;;;5061786;28;20048;-82
2021/12/02 05:19:10;;;;;;;1.08;0.50;;;;;;;;;;5060847;28;20454;-83
2021/12/02 05:21:37;;;;;;;3.33;0.60;;;;;;;;;;5061497;28;20036;-82
2021/12/02 05:24:03;;;;;;;1.48;0.60;;;;;;;;;;5060266;28;20081;-83
2021/12/02 05:26:29;;;;;;;2.22;0.38;;;;;;;;;;5062411;28;20120;-83
2021/12/02 05:28:55;;;;;;;2.67;0.50;;;;;;;;;;5060110;28;20057;-83
2021/12/02 05:31:21;;;;;;;1.42;0.50;;;;;;;;;;5062176;28;20108;-84
2021/12/02 05:33:47;;;;;;;2.53;0.50;;;;;;;;;;5061257;28;20553;-84
2021/12/02 05:36:14;;;;;;;1.25;0.50;;;;;;;;;;5043382;28;20563;-83
2021/12/02 05:38:40;;;;;;;2.22;0.40;;;;;;;;;;5043957;28;20151;-84
2021/12/02 05:41:06;;;;;;;2.42;0.70;;;;;;;;;;5057539;28;20053;-84
2021/12/02 05:43:33;;;;;;;1.17;0.65;;;;;;;;;;5043510;28;20037;-83
2021/12/02 05:45:59;;;;;;;1.33;0.63;;;;;;;;;;5049969;28;20130;-83
2021/12/02 05:48:25;;;;;;;6.53;0.70;;;;;;;;;;5047365;28;20029;-84
2021/12/02 05:50:51;;;;;;;0.60;0.50;;;;;;;;;;5047351;28;20399;-84
2021/12/02 05:53:18;;;;;;;2.20;0.65;;;;;;;;;;5047601;28;20060;-80
2021/12/02 05:55:44;;;;;;;5.90;0.60;;;;;;;;;;5046127;28;20064;-81
2021/12/02 05:58:11;;;;;;;1.77;0.70;;;;;;;;;;5043419;28;20045;-79
2021/12/02 06:00:42;;;;;;;1.75;0.60;;;;;;;;;;5027464;28;20049;-80
2021/12/02 06:03:11;;;;;;;1.30;0.50;;;;;;;;;;5037678;28;20404;-80
2021/12/02 06:05:37;;;;;;;3.30;0.52;;;;;;;;;;5046333;28;20405;-81
2021/12/02 06:08:04;;;;;;;2.38;0.65;;;;;;;;;;5026534;28;20073;-80
2021/12/02 06:10:31;;;;;;;4.32;0.55;;;;;;;;;;5046185;28;20563;-81
2021/12/02 06:12:58;;;;;;;3.95;1.05;;;;;;;;;;5043862;28;20080;-79
2021/12/02 06:15:24;;;;;;;2.40;1.02;;;;;;;;;;5043874;28;20044;-82
2021/12/02 06:17:50;;;;;;;1.75;0.60;;;;;;;;;;5042657;28;20049;-81
2021/12/02 06:20:20;;;;;;;2.85;0.40;;;;;;;;;;5040966;28;20037;-81
2021/12/02 06:22:46;;;;;;;3.15;0.55;;;;;;;;;;5040308;28;20467;-80
2021/12/02 06:27:39;;;;;;;3.28;0.60;;;;;;;;;;5043874;28;20064;-80
2021/12/02 06:30:06;;;;;;;2.15;0.60;;;;;;;;;;5042555;28;20068;-80
2021/12/02 06:32:32;;;;;;;2.00;0.60;;;;;;;;;;5043496;28;20079;-80
2021/12/02 06:34:58;;;;;;;1.58;0.88;;;;;;;;;;5040312;28;20500;-81
2021/12/02 06:37:24;;;;;;;3.58;0.88;;;;;;;;;;5041429;28;20942;-80
2021/12/02 06:39:50;;;;;;;3.25;0.80;;;;;;;;;;5041352;28;20508;-81
2021/12/02 06:42:16;;;;;;;4.78;1.63;;;;;;;;;;5041961;28;20040;-81
2021/12/02 06:44:43;;;;;;;7.18;1.60;;;;;;;;;;5042146;28;20576;-80
2021/12/02 06:47:09;;;;;;;10.23;1.60;;;;;;;;;;5034253;28;20132;-80
2021/12/02 06:49:38;;;;;;;2.08;1.33;;;;;;;;;;5040524;28;20053;-80
2021/12/02 06:52:09;;;;;;;3.42;1.70;;;;;;;;;;5029336;28;20132;-79
2021/12/02 06:54:35;;;;;;;4.03;1.55;;;;;;;;;;5018883;28;20474;-80
2021/12/02 06:57:02;;;;;;;10.82;2.00;;;;;;;;;;5031909;28;20053;-81
2021/12/02 06:59:28;;;;;;;9.43;1.98;;;;;;;;;;5040248;28;20127;-81
2021/12/02 07:01:54;;;;;;;4.30;1.60;;;;;;;;;;5040451;28;20037;-80
2021/12/02 07:04:20;;;;;;;7.72;2.25;;;;;;;;;;5036661;28;20043;-82
2021/12/02 07:06:46;;;;;;;9.98;2.22;;;;;;;;;;5039798;28;20040;-81
2021/12/02 07:09:12;;;;;;;3.67;2.05;;;;;;;;;;5040464;28;20049;-82
2021/12/02 07:11:38;;;;;;;6.95;2.03;;;;;;;;;;5023341;28;20044;-81
2021/12/02 07:14:08;;;;;;;3.53;1.80;;;;;;;;;;5034305;28;20044;-81
2021/12/02 07:16:35;;;;;;;3.58;1.90;;;;;;;;;;5040893;28;20041;-82
2021/12/02 07:19:04;;;;;;;5.68;1.63;;;;;;;;;;5042713;28;20067;-80
2021/12/02 07:21:31;;;;;;;8.88;2.30;;;;;;;;;;5040703;28;20523;-80
2021/12/02 07:23:57;;;;;;;5.28;1.80;;;;;;;;;;5025828;28;20040;-79
2021/12/02 07:26:23;;;;;;;11.48;3.42;;;;;;;;;;5048509;28;20033;-79
2021/12/02 07:28:50;;;;;;;5.68;1.60;;;;;;;;;;5038408;28;20041;-80
2021/12/02 07:31:16;;;;;;;4.32;1.27;;;;;;;;;;5056207;28;20045;-83
2021/12/02 07:33:47;;;;;;;4.85;1.50;;;;;;;;;;5042942;28;20469;-81
2021/12/02 07:36:13;;;;;;;6.43;1.13;;;;;;;;;;5041691;28;20053;-79
2021/12/02 07:38:39;;;;;;;2.38;1.05;;;;;;;;;;5037039;28;20049;-80
2021/12/02 07:41:06;;;;;;;4.75;1.00;;;;;;;;;;5044380;28;20037;-80
2021/12/02 07:43:33;;;;;;;9.82;1.48;;;;;;;;;;5042911;28;20560;-82
2021/12/02 07:46:00;;;;;;;8.10;1.10;;;;;;;;;;5044676;28;20049;-80
2021/12/02 07:48:27;;;;;;;6.82;1.42;;;;;;;;;;5043825;28;20049;-81
2021/12/02 07:50:57;;;;;;;5.40;1.02;;;;;;;;;;5044201;28;20041;-80
2021/12/02 07:53:24;;;;;;;2.17;0.82;;;;;;;;;;5044273;28;20052;-81
2021/12/02 07:55:52;;;;;;;4.43;1.00;;;;;;;;;;5043052;28;20091;-81
2021/12/02 07:58:20;;;;;;;7.13;1.40;;;;;;;;;;5043831;28;20083;-80
2021/12/02 08:00:46;;;;;;;5.65;1.00;;;;;;;;;;5041633;28;20106;-79
2021/12/02 08:03:12;;;;;;;4.30;1.10;;;;;;;;;;5043220;28;20052;-80
2021/12/02 08:05:38;;;;;;;4.78;0.80;;;;;;;;;;5044778;28;20044;-80
2021/12/02 08:08:05;;;;;;;3.95;1.30;;;;;;;;;;5044443;28;20121;-80
2021/12/02 08:10:31;;;;;;;4.05;1.48;;;;;;;;;;5044635;28;20036;-80
2021/12/02 08:13:00;;;;;;;5.07;0.90;;;;;;;;;;5045670;28;20044;-80
2021/12/02 08:15:27;;;;;;;2.13;0.90;;;;;;;;;;5047180;28;20049;-80
2021/12/02 08:17:54;;;;;;;3.75;1.65;;;;;;;;;;5045331;28;20075;-80
2021/12/02 08:20:21;;;;;;;3.90;0.70;;;;;;;;;;5047975;28;20052;-80
2021/12/02 08:22:47;;;;;;;3.83;1.38;;;;;;;;;;5045029;28;20067;-79
2021/12/02 08:25:14;;;;;;;9.50;2.15;;;;;;;;;;5045868;28;20036;-79
2021/12/02 08:27:40;;;;;;;3.20;1.20;;;;;;;;;;5045286;28;20041;-80
2021/12/02 08:30:08;;;;;;;3.83;1.20;;;;;;;;;;5044178;28;20079;-80
2021/12/02 08:32:40;;;;;;;4.70;1.70;;;;;;;;;;5045831;28;20045;-81
2021/12/02 08:35:07;;;;;;;4.85;1.02;;;;;;;;;;5043413;28;20142;-81
2021/12/02 08:37:37;;;;;;;3.33;0.90;;;;;;;;;;5029067;28;20094;-81
2021/12/02 08:40:04;;;;;;;2.20;1.02;;;;;;;;;;5045707;28;20060;-81
2021/12/02 08:42:34;;;;;;;4.53;1.65;;;;;;;;;;5029338;28;20052;-81
2021/12/02 08:45:01;;;;;;;2.33;1.42;;;;;;;;;;5044415;28;20041;-81
2021/12/02 08:47:28;;;;;;;3.85;1.50;;;;;;;;;;5045388;28;20041;-81
2021/12/02 08:49:55;;;;;;;3.55;0.80;;;;;;;;;;5047578;28;20056;-81
2021/12/02 08:52:26;;;;;;;7.25;1.25;;;;;;;;;;5044959;28;20405;-82
2021/12/02 08:54:52;;;;;;;1.40;1.30;;;;;;;;;;5028997;28;20098;-81
2021/12/02 08:57:19;;;;;;;3.50;0.95;;;;;;;;;;5046133;28;20037;-81
2021/12/02 08:59:45;;;;;;;4.38;1.50;;;;;;;;;;5044832;28;20083;-81
2021/12/02 09:02:12;;;;;;;4.50;1.20;;;;;;;;;;5045224;28;20052;-82
2021/12/02 09:04:38;;;;;;;4.18;1.10;;;;;;;;;;5045264;28;20059;-80
2021/12/02 09:07:05;;;;;;;4.28;1.05;;;;;;;;;;5045268;28;20461;-80
2021/12/02 09:09:31;;;;;;;2.95;0.80;;;;;;;;;;5043825;28;20500;-80
2021/12/02 09:11:57;;;;;;;5.32;0.60;;;;;;;;;;5046834;28;20052;-81
2021/12/02 09:14:23;;;;;;;2.88;0.40;;;;;;;;;;5045542;28;20032;-81
2021/12/02 09:16:50;;;;;;;3.00;0.65;;;;;;;;;;5046271;28;20052;-82
2021/12/02 09:19:17;;;;;;;8.82;1.10;;;;;;;;;;5046989;28;20060;-81
2021/12/02 09:21:43;;;;;;;7.50;0.98;;;;;;;;;;5048947;28;20063;-81
2021/12/02 09:24:11;;;;;;;3.72;0.70;;;;;;;;;;5050636;28;20056;-80
2021/12/02 09:26:37;;;;;;;2.72;1.00;;;;;;;;;;5045573;28;20057;-81
2021/12/02 09:29:04;;;;;;;1.10;0.57;;;;;;;;;;5049886;28;20131;-80
2021/12/02 09:31:31;;;;;;;1.33;0.60;;;;;;;;;;5049024;28;20115;-81
2021/12/02 09:33:57;;;;;;;3.92;0.60;;;;;;;;;;5049247;28;20139;-80
2021/12/02 09:36:24;;;;;;;2.50;0.50;;;;;;;;;;5049772;28;20061;-80
2021/12/02 09:38:50;;;;;;;5.25;0.60;;;;;;;;;;5049127;28;20033;-83
2021/12/02 09:41:16;;;;;;;3.95;0.80;;;;;;;;;;5050230;28;20095;-80
2021/12/02 09:43:42;;;;;;;3.17;0.65;;;;;;;;;;5047459;28;20045;-81
2021/12/02 09:46:09;;;;;;;3.67;0.50;;;;;;;;;;5049657;28;20052;-80
2021/12/02 09:48:35;;;;;;;5.22;0.60;;;;;;;;;;5048542;28;20049;-80
2021/12/02 09:51:17;;;;;;;5.40;0.50;;;;;;;;;;5050211;28;20045;-80
2021/12/02 09:53:58;;;;;;;1.88;0.60;;;;;;;;;;5049529;28;20053;-81
2021/12/02 09:56:33;;;;;;;4.53;0.43;;;;;;;;;;5048452;28;20049;-82
2021/12/02 09:59:09;;;;;;;1.92;0.40;;;;;;;;;;5049951;28;20052;-84
2021/12/02 10:01:58;;;;;;;2.47;1.40;;;;;;;;;;5046477;28;20163;-79
2021/12/02 10:04:25;;;;;;;4.32;1.98;;;;;;;;;;5050583;28;20040;-81
2021/12/02 10:07:03;;;;;;;5.70;1.65;;;;;;;;;;5048789;28;20496;-81
2021/12/02 10:09:39;;;;;;;3.40;2.03;;;;;;;;;;5048424;28;20080;-80
2021/12/02 10:12:27;;;;;;;4.38;1.92;;;;;;;;;;5049570;28;20113;-79
2021/12/02 10:14:54;;;;;;;4.15;0.90;;;;;;;;;;5048076;28;20565;-80
2021/12/02 10:17:29;;;;;;;4.15;0.50;;;;;;;;;;5049566;28;20456;-81
2021/12/02 10:23:03;;;;;;;5.00;0.80;;;;;;;;;;5027989;28;20092;-80
2021/12/02 10:25:34;;;;;;;1.45;0.52;;;;;;;;;;5029704;28;20488;-80
2021/12/02 10:28:01;;;;;;;2.22;0.60;;;;;;;;;;5027280;28;20081;-81
2021/12/02 10:30:27;;;;;;;2.55;0.75;;;;;;;;;;5033889;28;20569;-81
2021/12/02 10:32:54;;;;;;;1.42;0.40;;;;;;;;;;5049183;28;20095;-81
2021/12/02 10:35:36;;;;;;;0.85;0.43;;;;;;;;;;5047629;28;20065;-81
2021/12/02 10:38:02;;;;;;;1.58;0.47;;;;;;;;;;5047590;28;20557;-81
2021/12/02 10:40:28;;;;;;;1.70;0.40;;;;;;;;;;5047462;28;20515;-80
2021/12/02 10:42:54;;;;;;;2.60;0.47;;;;;;;;;;5047739;28;20472;-80
2021/12/02 10:45:22;;;;;;;5.15;0.50;;;;;;;;;;5046867;28;20480;-83
2021/12/02 10:47:49;;;;;;;1.35;0.50;;;;;;;;;;5048400;28;20048;-80
2021/12/02 10:50:15;;;;;;;0.50;0.40;;;;;;;;;;5049380;28;20069;-80
2021/12/02 10:52:42;;;;;;;1.08;0.50;;;;;;;;;;5047221;28;20539;-80
2021/12/02 10:55:12;;;;;;;2.08;0.52;;;;;;;;;;5049196;28;20465;-80
2021/12/02 10:57:40;;;;;;;1.77;0.40;;;;;;;;;;5047209;28;20474;-81
2021/12/02 11:00:12;;;;;;;1.65;0.30;;;;;;;;;;5048678;28;20102;-81
2021/12/02 11:02:40;;;;;;;5.25;0.50;;;;;;;;;;5047549;28;20500;-81
2021/12/02 11:05:08;;;;;;;1.70;0.60;;;;;;;;;;5048336;28;20044;-81
2021/12/02 11:07:35;;;;;;;5.82;1.17;;;;;;;;;;5048542;28;20476;-81
2021/12/02 11:10:06;;;;;;;3.85;0.90;;;;;;;;;;5045247;28;20045;-81
2021/12/02 11:12:33;;;;;;;2.10;0.65;;;;;;;;;;5028799;28;20104;-81
2021/12/02 11:15:01;;;;;;;0.65;0.40;;;;;;;;;;5026772;28;20045;-81
2021/12/02 11:17:32;;;;;;;2.03;0.40;;;;;;;;;;5028552;28;20405;-81
2021/12/02 11:19:58;;;;;;;4.07;0.40;;;;;;;;;;5027595;28;20057;-81
2021/12/02 11:22:26;;;;;;;1.45;0.50;;;;;;;;;;5046546;28;20166;-81
2021/12/02 11:24:52;;;;;;;3.70;0.65;;;;;;;;;;5047716;28;20040;-81
2021/12/02 11:27:20;;;;;;;4.20;0.60;;;;;;;;;;5046764;28;20045;-81
2021/12/02 11:29:54;;;;;;;5.00;0.40;;;;;;;;;;5048053;28;20048;-81
2021/12/02 11:32:24;;;;;;;5.28;1.67;;;;;;;;;;5025230;28;20378;-80
2021/12/02 11:34:59;;;;;;;4.18;0.75;;;;;;;;;;5026630;28;20855;-80
2021/12/02 11:37:25;;;;;;;2.47;0.55;;;;;;;;;;5027495;28;20099;-80
2021/12/02 11:39:52;;;;;;;2.10;0.60;;;;;;;;;;5029820;28;20044;-81
2021/12/02 11:42:18;;;;;;;6.80;1.02;;;;;;;;;;5046069;28;20041;-81
2021/12/02 11:44:46;;;;;;;3.83;0.77;;;;;;;;;;5044142;28;20045;-80
2021/12/02 11:47:12;;;;;;;2.35;0.60;;;;;;;;;;5048208;28;20445;-80
2021/12/02 11:49:38;;;;;;;3.22;0.70;;;;;;;;;;5046530;28;20033;-81
2021/12/02 11:52:05;;;;;;;1.67;0.93;;;;;;;;;;5046989;28;20040;-81
2021/12/02 11:54:32;;;;;;;2.75;0.90;;;;;;;;;;5024732;28;20635;-82
2021/12/02 11:56:59;;;;;;;4.55;0.50;;;;;;;;;;5034689;28;20032;-82
2021/12/02 11:59:26;;;;;;;2.10;0.40;;;;;;;;;;5047392;28;20056;-82
2021/12/02 12:01:59;;;;;;;2.20;0.45;;;;;;;;;;5045652;28;20145;-82
2021/12/02 12:04:25;;;;;;;2.83;0.45;;;;;;;;;;5029093;28;20049;-81
2021/12/02 12:07:08;;;;;;;2.70;0.55;;;;;;;;;;5045042;28;20106;-82
2021/12/02 12:09:34;;;;;;;3.83;0.65;;;;;;;;;;5046379;28;20037;-82
2021/12/02 12:12:01;;;;;;;1.90;0.40;;;;;;;;;;5044547;28;20543;-82
2021/12/02 12:14:40;;;;;;;2.13;0.50;;;;;;;;;;5044982;28;20496;-82
2021/12/02 12:17:08;;;;;;;6.07;0.57;;;;;;;;;;5047294;28;20064;-82
2021/12/02 12:19:45;;;;;;;2.85;0.60;;;;;;;;;;5044912;28;20535;-82
2021/12/02 12:22:23;;;;;;;0.40;0.40;;;;;;;;;;5046084;28;20071;-82
2021/12/02 12:24:58;;;;;;;2.83;0.60;;;;;;;;;;5045630;28;20055;-82
2021/12/02 12:27:26;;;;;;;1.45;0.40;;;;;;;;;;5046088;28;20037;-82
2021/12/02 12:30:02;;;;;;;2.05;0.50;;;;;;;;;;5047266;28;20135;-82
2021/12/02 12:32:40;;;;;;;4.63;1.02;;;;;;;;;;5044832;28;20051;-82
2021/12/02 12:35:11;;;;;;;1.50;0.40;;;;;;;;;;5045221;28;20068;-82
2021/12/02 12:40:09;;;;;;;3.50;0.80;;;;;;;;;;5047113;28;20052;-82
2021/12/02 12:42:36;;;;;;;0.80;0.60;;;;;;;;;;5045953;28;20047;-82
2021/12/02 12:45:04;;;;;;;2.05;0.73;;;;;;;;;;5045665;28;20041;-83
2021/12/02 12:47:42;;;;;;;1.55;0.40;;;;;;;;;;5028768;28;20128;-83
2021/12/02 12:50:22;;;;;;;0.80;0.30;;;;;;;;;;5044241;28;20099;-82
2021/12/02 12:53:12;;;;;;;2.58;0.60;;;;;;;;;;5034331;28;20045;-82
2021/12/02 12:55:40;;;;;;;1.52;0.52;;;;;;;;;;5042061;28;20128;-82
2021/12/02 12:58:18;;;;;;;1.15;0.47;;;;;;;;;;5049635;28;20037;-82
2021/12/02 13:00:46;;;;;;;1.27;0.50;;;;;;;;;;5051082;28;20416;-81
2021/12/02 13:03:19;;;;;;;0.80;0.60;;;;;;;;;;5031282;28;20033;-82
2021/12/02 13:05:48;;;;;;;2.22;0.60;;;;;;;;;;5050594;28;20120;-81
2021/12/02 13:08:19;;;;;;;1.08;0.57;;;;;;;;;;5048237;28;20049;-81
2021/12/02 13:10:52;;;;;;;0.90;0.60;;;;;;;;;;5050194;28;20484;-82
2021/12/02 13:13:30;;;;;;;0.85;0.60;;;;;;;;;;5049314;28;20566;-81
2021/12/02 13:16:11;;;;;;;1.63;0.70;;;;;;;;;;5048898;28;20103;-81
2021/12/02 13:18:39;;;;;;;1.38;0.65;;;;;;;;;;5050449;28;20080;-81
2021/12/02 13:21:19;;;;;;;1.05;0.60;;;;;;;;;;5048527;28;20045;-81
2021/12/02 13:23:57;;;;;;;1.55;0.70;;;;;;;;;;5049854;28;20049;-81
2021/12/02 13:26:24;;;;;;;1.58;0.70;;;;;;;;;;5049134;28;20048;-81
2021/12/02 13:28:52;;;;;;;0.52;0.52;;;;;;;;;;5048311;28;20040;-81
2021/12/02 13:31:19;;;;;;;1.40;1.15;;;;;;;;;;5050047;28;20084;-81
2021/12/02 13:33:51;;;;;;;2.70;1.42;;;;;;;;;;5047276;28;20416;-81
2021/12/02 13:36:20;;;;;;;1.40;0.82;;;;;;;;;;5049415;28;20061;-81
2021/12/02 13:39:06;;;;;;;1.20;0.60;;;;;;;;;;5047979;28;20107;-81
2021/12/02 13:41:36;;;;;;;1.00;0.60;;;;;;;;;;5048656;28;20134;-80
2021/12/02 13:44:07;;;;;;;0.47;0.43;;;;;;;;;;5050251;28;20044;-81
2021/12/02 13:46:35;;;;;;;1.10;0.50;;;;;;;;;;5048179;28;20045;-80
2021/12/02 13:49:03;;;;;;;1.27;0.40;;;;;;;;;;5049792;28;20045;-81
2021/12/02 13:54:22;;;;;;;1.23;0.80;;;;;;;;;;5048916;28;20526;-81
2021/12/02 13:56:48;;;;;;;2.28;1.20;;;;;;;;;;5049987;28;20049;-81
2021/12/02 13:59:16;;;;;;;1.75;1.48;;;;;;;;;;5048047;28;20036;-81
2021/12/02 14:01:53;;;;;;;1.13;1.08;;;;;;;;;;5048149;28;20512;-81
2021/12/02 14:04:19;;;;;;;1.45;0.90;;;;;;;;;;5048555;28;20045;-81
2021/12/02 14:06:45;;;;;;;2.03;0.70;;;;;;;;;;5048926;28;20408;-80
2021/12/02 14:09:16;;;;;;;2.63;0.93;;;;;;;;;;5049119;28;20049;-82
2021/12/02 14:11:43;;;;;;;2.80;0.60;;;;;;;;;;5048492;28;20041;-81
2021/12/02 14:14:15;;;;;;;4.65;1.08;;;;;;;;;;5048039;28;20045;-81
2021/12/02 14:16:42;;;;;;;1.95;0.63;;;;;;;;;;5046412;28;20123;-81
2021/12/02 14:19:09;;;;;;;2.67;0.70;;;;;;;;;;5047577;28;20365;-81
2021/12/02 14:21:36;;;;;;;3.58;1.08;;;;;;;;;;5048551;28;20131;-81
2021/12/02 14:24:02;;;;;;;3.72;1.20;;;;;;;;;;5049561;28;20106;-80
2021/12/02 14:26:30;;;;;;;2.47;0.90;;;;;;;;;;5048686;28;20041;-81
2021/12/02 14:28:58;;;;;;;3.63;1.08;;;;;;;;;;5047911;28;20080;-81
2021/12/02 14:31:24;;;;;;;2.85;1.20;;;;;;;;;;5049496;28;20049;-81
2021/12/02 14:33:52;;;;;;;3.50;1.13;;;;;;;;;;5046836;28;20144;-80
2021/12/02 14:36:19;;;;;;;9.05;1.25;;;;;;;;;;5049253;28;20061;-80
2021/12/02 14:38:47;;;;;;;4.78;1.30;;;;;;;;;;5047455;28;20804;-81
2021/12/02 14:41:15;;;;;;;4.72;1.70;;;;;;;;;;5048769;28;20438;-81
2021/12/02 14:43:50;;;;;;;2.33;0.90;;;;;;;;;;5048385;28;20131;-81
2021/12/02 14:46:16;;;;;;;2.97;1.25;;;;;;;;;;5047249;28;20483;-81
2021/12/02 14:48:42;;;;;;;6.47;1.20;;;;;;;;;;5048720;28;20045;-81
2021/12/02 14:51:11;;;;;;;7.22;1.55;;;;;;;;;;5047888;28;20076;-80
2021/12/02 14:53:38;;;;;;;4.57;1.80;;;;;;;;;;5048895;28;20496;-81
2021/12/02 14:56:20;;;;;;;4.18;1.15;;;;;;;;;;5045721;28;20516;-81
2021/12/02 14:59:07;;;;;;;4.75;1.45;;;2.90;99.90;;;;;;5048126;28;20047;-81
2021/12/02 15:01:34;;;;;;;10.25;1.52;;;;;;;;;;5048567;28;20052;-81
2021/12/02 15:04:14;;;;;;;3.20;1.00;;;;;;;;;;5047185;28;20124;-80
2021/12/02 15:06:40;;;;;;;1.40;0.90;;;;;;;;;;5048587;28;20036;-83
2021/12/02 15:09:29;;;;;;;5.35;1.77;;;2.70;99.90;;;;;;5046497;28;20040;-81
2021/12/02 15:11:56;;;;;;;2.75;1.40;;;;;;;;;;5047845;28;21693;-80
2021/12/02 15:14:35;;;;;;;4.00;1.40;;;;;;;;;;5048195;28;20045;-81
2021/12/02 15:17:01;;;;;;;6.15;1.50;;;;;;;;;;5045444;28;20060;-80